createdAt,value
2022-10-05T00:01:53.176Z,57.74
2022-10-05T00:04:23.899Z,59.92
2022-10-05T00:07:14.544Z,65.64
2022-10-05T00:09:42.236Z,67.44
2022-10-05T00:12:17.683Z,63.10
2022-10-05T00:14:46.353Z,58.09
2022-10-05T00:17:24.895Z,54.19
2022-10-05T00:19:53.976Z,53.82
2022-10-05T00:22:23.468Z,55.45
2022-10-05T00:24:55.053Z,56.80
2022-10-05T00:27:24.844Z,57.47
2022-10-05T00:29:53.743Z,58.56
2022-10-05T00:32:21.356Z,60.30
2022-10-05T00:34:48.863Z,61.27
2022-10-05T00:37:16.453Z,67.10
2022-10-05T00:39:44.348Z,67.78
2022-10-05T00:42:40.313Z,63.86
2022-10-05T00:45:38.039Z,61.26
2022-10-05T00:48:27.026Z,54.60
2022-10-05T00:51:52.884Z,52.24
2022-10-05T00:54:32.473Z,52.38
2022-10-05T00:57:20.265Z,53.78
2022-10-05T01:00:12.503Z,55.65
2022-10-05T01:02:50.236Z,57.65
2022-10-05T01:05:47.170Z,59.02
2022-10-05T01:08:41.459Z,60.65
2022-10-05T01:11:14.640Z,66.51
2022-10-05T01:13:42.173Z,69.14
2022-10-05T01:16:30.106Z,59.10
2022-10-05T01:18:57.564Z,53.75
2022-10-05T01:21:26.302Z,52.68
2022-10-05T01:24:21.641Z,54.10
2022-10-05T01:26:58.178Z,55.03
2022-10-05T01:29:37.651Z,56.99
2022-10-05T01:32:14.265Z,59.05
2022-10-05T01:35:08.015Z,59.89
2022-10-05T01:37:41.458Z,60.99
2022-10-05T01:40:25.127Z,66.17
2022-10-05T01:42:55.958Z,67.90
2022-10-05T01:45:33.665Z,63.95
2022-10-05T01:48:09.640Z,60.71
2022-10-05T01:50:46.850Z,54.45
2022-10-05T01:53:18.250Z,52.29
2022-10-05T01:56:02.386Z,52.91
2022-10-05T01:58:32.683Z,53.84
2022-10-05T02:01:05.091Z,55.37
2022-10-05T02:03:38.596Z,56.93
2022-10-05T02:06:15.722Z,58.50
2022-10-05T02:09:21.861Z,59.43
2022-10-05T02:11:54.555Z,60.57
2022-10-05T02:14:28.677Z,67.53
2022-10-05T02:16:56.163Z,66.59
2022-10-05T02:19:35.599Z,61.51
2022-10-05T02:22:08.015Z,55.64
2022-10-05T02:24:43.499Z,54.07
2022-10-05T02:27:11.478Z,55.44
2022-10-05T02:29:40.225Z,57.81
2022-10-05T02:32:12.876Z,60.21
2022-10-05T02:34:41.660Z,64.11
2022-10-05T02:37:54.237Z,58.62
2022-10-05T02:40:35.479Z,55.14
2022-10-05T02:43:22.932Z,57.90
2022-10-05T02:46:03.216Z,58.15
2022-10-05T02:48:49.012Z,60.54
2022-10-05T02:51:23.210Z,65.73
2022-10-05T02:54:00.450Z,65.10
2022-10-05T02:56:43.221Z,59.04
2022-10-05T02:59:13.258Z,53.87
2022-10-05T03:01:49.179Z,53.64
2022-10-05T03:04:25.929Z,55.79
2022-10-05T03:07:17.140Z,58.72
2022-10-05T03:10:01.059Z,59.40
2022-10-05T03:12:39.586Z,64.51
2022-10-05T03:15:10.296Z,66.26
2022-10-05T03:17:46.559Z,62.08
2022-10-05T03:20:33.968Z,56.11
2022-10-05T03:23:02.410Z,53.00
2022-10-05T03:25:40.127Z,55.62
2022-10-05T03:28:10.488Z,57.05
2022-10-05T03:30:42.639Z,60.38
2022-10-05T03:33:29.068Z,66.10
2022-10-05T03:35:58.038Z,62.66
2022-10-05T03:38:34.797Z,59.05
2022-10-05T03:41:12.547Z,53.65
2022-10-05T03:44:08.189Z,54.20
2022-10-05T03:46:41.956Z,57.54
2022-10-05T03:49:11.524Z,60.36
2022-10-05T03:51:41.300Z,63.23
2022-10-05T03:54:26.626Z,60.23
2022-10-05T03:57:01.649Z,55.44
2022-10-05T03:59:32.911Z,57.89
2022-10-05T04:02:02.808Z,60.01
2022-10-05T04:04:38.993Z,63.52
2022-10-05T04:07:06.575Z,60.63
2022-10-05T04:09:40.795Z,55.16
2022-10-05T04:12:11.280Z,56.74
2022-10-05T04:14:41.705Z,58.79
2022-10-05T04:17:33.379Z,61.31
2022-10-05T04:20:04.535Z,63.56
2022-10-05T04:22:46.205Z,58.51
2022-10-05T04:25:26.595Z,56.08
2022-10-05T04:28:27.061Z,57.85
2022-10-05T04:30:57.149Z,61.65
2022-10-05T04:33:24.852Z,65.02
2022-10-05T04:35:56.818Z,60.28
2022-10-05T04:38:50.029Z,55.71
2022-10-05T04:41:42.385Z,55.72
2022-10-05T04:44:23.442Z,58.51
2022-10-05T04:47:27.846Z,61.02
2022-10-05T04:50:03.933Z,66.86
2022-10-05T04:52:34.950Z,64.92
2022-10-05T04:55:10.127Z,58.92
2022-10-05T04:58:00.299Z,54.98
2022-10-05T05:00:38.637Z,56.79
2022-10-05T05:03:32.499Z,58.39
2022-10-05T05:06:16.915Z,59.70
2022-10-05T05:09:03.600Z,61.99
2022-10-05T05:11:35.093Z,65.79
2022-10-05T05:14:34.599Z,62.64
2022-10-05T05:17:20.968Z,54.89
2022-10-05T05:20:05.798Z,53.57
2022-10-05T05:22:39.266Z,55.95
2022-10-05T05:25:36.009Z,58.62
2022-10-05T05:28:06.645Z,61.70
2022-10-05T05:30:54.581Z,65.50
2022-10-05T05:33:25.195Z,57.67
2022-10-05T05:36:27.999Z,56.96
2022-10-05T05:39:06.599Z,59.76
2022-10-05T05:41:38.681Z,60.73
2022-10-05T05:44:20.732Z,65.57
2022-10-05T05:47:15.164Z,58.12
2022-10-05T05:50:08.211Z,56.15
2022-10-05T05:52:45.921Z,58.73
2022-10-05T05:55:35.540Z,62.40
2022-10-05T05:58:11.105Z,59.82
2022-10-05T06:00:43.335Z,55.85
2022-10-05T06:03:38.654Z,56.90
2022-10-05T06:06:10.526Z,59.57
2022-10-05T06:08:42.981Z,63.25
2022-10-05T06:11:53.921Z,60.91
2022-10-05T06:14:32.531Z,55.41
2022-10-05T06:17:06.674Z,57.61
2022-10-05T06:19:34.643Z,60.08
2022-10-05T06:22:14.539Z,61.33
2022-10-05T06:25:06.922Z,64.37
2022-10-05T06:27:34.573Z,59.19
2022-10-05T06:30:13.451Z,54.04
2022-10-05T06:32:49.935Z,55.31
2022-10-05T06:35:38.633Z,57.55
2022-10-05T06:38:12.231Z,58.18
2022-10-05T06:41:11.071Z,60.71
2022-10-05T06:44:03.914Z,63.60
2022-10-05T06:46:51.101Z,60.66
2022-10-05T06:49:49.070Z,54.73
2022-10-05T06:52:49.358Z,54.61
2022-10-05T06:55:24.067Z,57.73
2022-10-05T06:58:07.769Z,60.26
2022-10-05T07:00:40.307Z,62.78
2022-10-05T07:03:24.005Z,62.50
2022-10-05T07:05:59.890Z,54.37
2022-10-05T07:08:40.357Z,52.67
2022-10-05T07:11:24.722Z,53.32
2022-10-05T07:14:16.304Z,56.39
2022-10-05T07:16:59.783Z,59.39
2022-10-05T07:19:52.477Z,60.47
2022-10-05T07:22:31.754Z,61.44
2022-10-05T07:25:45.048Z,63.64
2022-10-05T07:28:21.790Z,56.06
2022-10-05T07:30:58.935Z,55.26
2022-10-05T07:33:46.463Z,57.15
2022-10-05T07:36:53.713Z,58.06
2022-10-05T07:39:58.526Z,59.90
2022-10-05T07:42:48.907Z,61.42
2022-10-05T07:45:29.230Z,61.80
2022-10-05T07:47:59.726Z,61.94
2022-10-05T07:50:49.392Z,61.77
2022-10-05T07:53:22.616Z,64.48
2022-10-05T07:55:52.453Z,55.91
2022-10-05T07:58:30.134Z,53.15
2022-10-05T08:01:26.277Z,54.21
2022-10-05T08:03:57.195Z,56.12
2022-10-05T08:06:31.573Z,56.68
2022-10-05T08:09:04.670Z,57.83
2022-10-05T08:12:01.738Z,58.42
2022-10-05T08:15:03.858Z,59.42
2022-10-05T08:17:54.019Z,59.93
2022-10-05T08:20:45.105Z,58.95
2022-10-05T08:23:17.178Z,60.22
2022-10-05T08:25:49.208Z,60.13
2022-10-05T08:28:39.607Z,60.57
2022-10-05T08:31:32.221Z,60.47
2022-10-05T08:34:22.123Z,60.74
2022-10-05T08:37:01.774Z,59.75
2022-10-05T08:40:01.391Z,60.32
2022-10-05T08:42:47.333Z,60.38
2022-10-05T08:45:33.608Z,59.64
2022-10-05T08:48:19.507Z,60.16
2022-10-05T08:50:59.083Z,60.46
2022-10-05T08:53:26.588Z,60.20
2022-10-05T08:56:28.633Z,60.19
2022-10-05T08:59:15.342Z,60.25
2022-10-05T09:01:55.509Z,60.82
2022-10-05T09:04:59.635Z,60.65
2022-10-05T09:08:04.838Z,60.77
2022-10-05T09:10:51.019Z,60.66
2022-10-05T09:13:58.778Z,60.85
2022-10-05T09:16:43.412Z,60.53
2022-10-05T09:19:23.016Z,60.39
2022-10-05T09:21:57.896Z,60.27
2022-10-05T09:24:36.511Z,59.91
2022-10-05T09:27:10.633Z,59.70
2022-10-05T09:30:00.158Z,59.57
2022-10-05T09:32:58.651Z,59.21
2022-10-05T09:35:58.176Z,59.44
2022-10-05T09:38:39.864Z,58.68
2022-10-05T09:41:22.000Z,58.73
2022-10-05T09:44:11.095Z,58.91
2022-10-05T09:47:24.092Z,58.46
2022-10-05T09:50:07.021Z,57.47
2022-10-05T09:52:52.797Z,57.72
2022-10-05T09:55:51.269Z,57.35
2022-10-05T09:58:37.015Z,57.62
2022-10-05T10:01:32.656Z,56.41
2022-10-05T10:04:24.706Z,55.48
2022-10-05T10:06:55.234Z,55.01
2022-10-05T10:09:41.693Z,53.69
2022-10-05T10:12:09.171Z,53.65
2022-10-05T10:15:10.973Z,53.71
2022-10-05T10:17:53.798Z,53.96
2022-10-05T10:20:45.024Z,53.41
2022-10-05T10:23:15.509Z,53.35
2022-10-05T10:26:01.956Z,53.61
2022-10-05T10:28:39.787Z,52.07
2022-10-05T10:31:33.743Z,51.19
2022-10-05T10:34:44.117Z,49.40
2022-10-05T10:37:21.936Z,46.62
2022-10-05T10:40:14.126Z,44.02
2022-10-05T10:42:59.145Z,43.75
2022-10-05T10:46:06.079Z,42.33
2022-10-05T10:48:50.031Z,41.43
2022-10-05T10:51:25.982Z,40.13
2022-10-05T10:54:21.971Z,38.53
2022-10-05T10:56:58.253Z,38.11
2022-10-05T10:59:50.121Z,35.90
2022-10-05T11:02:42.415Z,35.82
2022-10-05T11:05:20.015Z,36.75
2022-10-05T11:08:09.793Z,37.31
2022-10-05T11:11:00.732Z,37.76
2022-10-05T11:13:31.111Z,37.59
2022-10-05T11:16:12.518Z,37.66
2022-10-05T11:19:07.611Z,38.44
2022-10-05T11:21:43.384Z,39.17
2022-10-05T11:24:26.418Z,39.75
2022-10-05T11:26:56.975Z,39.79
2022-10-05T11:29:41.396Z,39.66
2022-10-05T11:32:47.333Z,39.32
2022-10-05T11:35:38.323Z,39.82
2022-10-05T11:38:32.607Z,40.30
2022-10-05T11:41:24.148Z,40.76
2022-10-05T11:44:10.373Z,40.64
2022-10-05T11:47:03.201Z,40.58
2022-10-05T11:49:35.850Z,41.23
2022-10-05T11:52:30.785Z,41.66
2022-10-05T11:55:19.571Z,42.37
2022-10-05T11:57:57.102Z,42.84
2022-10-05T12:00:40.497Z,43.52
2022-10-05T12:03:33.539Z,43.88
2022-10-05T12:06:38.231Z,44.87
2022-10-05T12:09:30.732Z,45.35
2022-10-05T12:12:22.183Z,45.75
2022-10-05T12:14:54.276Z,46.47
2022-10-05T12:17:46.532Z,47.01
2022-10-05T12:20:20.951Z,47.46
2022-10-05T12:22:59.015Z,47.87
2022-10-05T12:25:39.118Z,48.31
2022-10-05T12:28:11.128Z,48.92
2022-10-05T12:31:22.456Z,49.49
2022-10-05T12:34:12.025Z,49.54
2022-10-05T12:37:04.110Z,49.60
2022-10-05T12:39:57.021Z,49.96
2022-10-05T12:42:40.869Z,50.35
2022-10-05T12:45:21.362Z,50.73
2022-10-05T12:47:58.061Z,51.21
2022-10-05T12:50:28.424Z,51.51
2022-10-05T12:52:59.428Z,51.62
2022-10-05T12:55:54.513Z,51.63
2022-10-05T12:58:45.661Z,51.76
2022-10-05T13:01:25.277Z,51.93
2022-10-05T13:03:55.182Z,52.62
2022-10-05T13:06:28.446Z,52.74
2022-10-05T13:08:58.718Z,52.82
2022-10-05T13:11:36.110Z,53.01
2022-10-05T13:14:42.792Z,53.43
2022-10-05T13:17:16.900Z,53.50
2022-10-05T13:19:47.093Z,53.81
2022-10-05T13:22:44.176Z,53.83
2022-10-05T13:25:27.188Z,53.80
2022-10-05T13:28:17.797Z,53.88
2022-10-05T13:30:51.739Z,53.96
2022-10-05T13:33:27.280Z,54.27
2022-10-05T13:36:30.024Z,54.30
2022-10-05T13:38:59.575Z,54.27
2022-10-05T13:41:54.510Z,54.48
2022-10-05T13:44:34.008Z,54.65
2022-10-05T13:47:09.211Z,55.00
2022-10-05T13:49:42.720Z,54.97
2022-10-05T13:52:19.726Z,55.02
2022-10-05T13:55:12.282Z,55.10
2022-10-05T13:58:02.455Z,55.33
2022-10-05T14:00:30.463Z,55.65
2022-10-05T14:02:58.704Z,55.94
2022-10-05T14:05:30.625Z,56.38
2022-10-05T14:08:04.285Z,56.65
2022-10-05T14:10:39.765Z,56.69
2022-10-05T14:13:22.418Z,57.25
2022-10-05T14:16:01.752Z,57.01
2022-10-05T14:18:32.719Z,57.28
2022-10-05T14:21:17.297Z,57.41
2022-10-05T14:23:45.051Z,57.85
2022-10-05T14:26:25.772Z,58.11
2022-10-05T14:28:58.622Z,58.31
2022-10-05T14:31:36.868Z,58.48
2022-10-05T14:34:31.699Z,58.73
2022-10-05T14:37:19.056Z,58.65
2022-10-05T14:39:48.795Z,58.97
2022-10-05T14:42:18.930Z,58.82
2022-10-05T14:45:00.011Z,59.00
2022-10-05T14:47:30.169Z,58.99
2022-10-05T14:50:13.919Z,59.40
2022-10-05T14:52:46.412Z,59.69
2022-10-05T14:55:38.892Z,59.71
2022-10-05T14:58:23.887Z,59.87
2022-10-05T15:00:58.822Z,59.92
2022-10-05T15:03:41.614Z,60.19
2022-10-05T15:06:16.258Z,60.27
2022-10-05T15:09:02.320Z,60.30
2022-10-05T15:11:38.702Z,60.53
2022-10-05T15:14:13.756Z,60.64
2022-10-05T15:16:42.211Z,60.77
2022-10-05T15:19:24.961Z,61.15
2022-10-05T15:22:07.500Z,61.76
2022-10-05T15:24:43.746Z,61.84
2022-10-05T15:27:36.406Z,63.50
2022-10-05T15:30:17.942Z,54.88
2022-10-05T15:32:49.809Z,54.31
2022-10-05T15:35:36.050Z,55.49
2022-10-05T15:38:26.582Z,56.59
2022-10-05T15:40:59.100Z,58.16
2022-10-05T15:43:33.481Z,59.27
2022-10-05T15:46:12.428Z,60.34
2022-10-05T15:49:14.594Z,61.16
2022-10-05T15:52:03.634Z,61.06
2022-10-05T15:54:49.959Z,61.81
2022-10-05T15:57:42.521Z,62.99
2022-10-05T16:00:17.273Z,56.73
2022-10-05T16:03:33.120Z,52.60
2022-10-05T16:06:24.392Z,53.73
2022-10-05T16:09:23.211Z,55.98
2022-10-05T16:12:06.916Z,58.47
2022-10-05T16:14:54.592Z,59.49
2022-10-05T16:17:33.787Z,60.25
2022-10-05T16:20:16.734Z,60.57
2022-10-05T16:23:21.593Z,62.23
2022-10-05T16:26:02.680Z,58.79
2022-10-05T16:28:42.701Z,55.89
2022-10-05T16:31:18.821Z,57.20
2022-10-05T16:33:54.629Z,58.88
2022-10-05T16:36:26.119Z,60.47
2022-10-05T16:39:00.184Z,61.15
2022-10-05T16:42:19.128Z,62.70
2022-10-05T16:45:18.452Z,58.86
2022-10-05T16:48:05.179Z,55.60
2022-10-05T16:50:48.893Z,57.30
2022-10-05T16:53:23.343Z,59.79
2022-10-05T16:56:01.147Z,61.19
2022-10-05T16:58:54.664Z,62.72
2022-10-05T17:01:45.949Z,56.82
2022-10-05T17:04:16.323Z,56.51
2022-10-05T17:07:02.493Z,58.80
2022-10-05T17:09:44.708Z,60.33
2022-10-05T17:12:34.224Z,60.98
2022-10-05T17:15:08.868Z,62.93
2022-10-05T17:17:58.390Z,59.11
2022-10-05T17:20:32.052Z,56.07
2022-10-05T17:23:04.362Z,58.25
2022-10-05T17:25:54.141Z,60.12
2022-10-05T17:28:23.263Z,62.75
2022-10-05T17:31:11.250Z,59.25
2022-10-05T17:34:03.518Z,55.06
2022-10-05T17:36:43.297Z,57.18
2022-10-05T17:39:50.159Z,58.99
2022-10-05T17:42:26.748Z,61.48
2022-10-05T17:44:55.208Z,61.85
2022-10-05T17:47:56.216Z,63.30
2022-10-05T17:51:02.871Z,56.45
2022-10-05T17:54:02.090Z,54.00
2022-10-05T17:56:31.081Z,56.76
2022-10-05T17:59:00.252Z,58.62
2022-10-05T18:01:38.467Z,60.31
2022-10-05T18:04:11.873Z,61.16
2022-10-05T18:07:00.220Z,61.90
2022-10-05T18:09:30.684Z,62.93
2022-10-05T18:12:16.477Z,58.18
2022-10-05T18:15:00.522Z,54.37
2022-10-05T18:17:46.268Z,56.05
2022-10-05T18:20:32.603Z,57.50
2022-10-05T18:23:01.180Z,59.07
2022-10-05T18:25:43.804Z,61.58
2022-10-05T18:28:14.075Z,62.58
2022-10-05T18:31:24.774Z,56.94
2022-10-05T18:34:14.220Z,54.55
2022-10-05T18:36:48.202Z,56.69
2022-10-05T18:39:27.634Z,58.15
2022-10-05T18:42:07.334Z,60.09
2022-10-05T18:44:46.348Z,61.17
2022-10-05T18:47:42.079Z,62.65
2022-10-05T18:50:23.061Z,59.04
2022-10-05T18:52:53.512Z,55.61
2022-10-05T18:55:44.925Z,56.93
2022-10-05T18:58:37.077Z,59.07
2022-10-05T19:01:41.662Z,59.99
2022-10-05T19:04:14.070Z,61.52
2022-10-05T19:06:50.406Z,61.77
2022-10-05T19:09:43.172Z,63.31
2022-10-05T19:12:35.142Z,57.71
2022-10-05T19:15:27.651Z,54.51
2022-10-05T19:17:58.740Z,56.59
2022-10-05T19:20:32.412Z,59.02
2022-10-05T19:23:18.611Z,60.21
2022-10-05T19:26:03.240Z,60.52
2022-10-05T19:28:55.843Z,62.67
2022-10-05T19:31:35.089Z,60.14
2022-10-05T19:34:40.977Z,54.10
2022-10-05T19:37:13.056Z,54.94
2022-10-05T19:39:55.112Z,57.44
2022-10-05T19:42:38.945Z,58.60
2022-10-05T19:45:22.859Z,60.30
2022-10-05T19:48:26.718Z,61.33
2022-10-05T19:50:58.433Z,61.65
2022-10-05T19:53:30.655Z,63.26
2022-10-05T19:56:12.727Z,58.14
2022-10-05T19:58:40.248Z,53.87
2022-10-05T20:01:07.893Z,54.87
2022-10-05T20:03:37.345Z,56.14
2022-10-05T20:06:06.525Z,58.68
2022-10-05T20:08:59.804Z,60.75
2022-10-05T20:11:28.034Z,60.79
2022-10-05T20:13:55.628Z,63.46
2022-10-05T20:16:44.952Z,59.12
2022-10-05T20:19:51.192Z,54.27
2022-10-05T20:22:46.134Z,55.51
2022-10-05T20:25:19.607Z,57.53
2022-10-05T20:27:50.657Z,58.81
2022-10-05T20:30:20.115Z,60.74
2022-10-05T20:32:48.703Z,62.52
2022-10-05T20:35:18.118Z,60.83
2022-10-05T20:37:45.658Z,56.14
2022-10-05T20:40:14.824Z,56.19
2022-10-05T20:42:42.364Z,57.63
2022-10-05T20:45:11.144Z,59.10
2022-10-05T20:47:38.985Z,59.71
2022-10-05T20:50:09.032Z,61.65
2022-10-05T20:52:39.666Z,64.21
2022-10-05T20:55:09.353Z,56.56
2022-10-05T20:57:41.521Z,53.57
2022-10-05T21:00:12.785Z,55.22
2022-10-05T21:02:40.357Z,57.48
2022-10-05T21:05:08.651Z,59.17
2022-10-05T21:07:36.416Z,60.38
2022-10-05T21:10:04.546Z,61.85
2022-10-05T21:12:33.970Z,63.18
2022-10-05T21:15:04.693Z,57.38
2022-10-05T21:17:34.611Z,54.40
2022-10-05T21:20:02.152Z,56.07
2022-10-05T21:22:29.718Z,57.79
2022-10-05T21:24:58.415Z,59.65
2022-10-05T21:27:26.130Z,60.55
2022-10-05T21:29:53.662Z,62.92
2022-10-05T21:32:21.206Z,63.39
2022-10-05T21:34:48.772Z,57.81
2022-10-05T21:37:16.492Z,55.02
2022-10-05T21:39:44.291Z,55.83
2022-10-05T21:42:11.917Z,57.63
2022-10-05T21:44:39.572Z,58.13
2022-10-05T21:47:07.047Z,59.60
2022-10-05T21:49:34.716Z,61.20
2022-10-05T21:52:02.325Z,64.91
2022-10-05T21:54:30.499Z,65.11
2022-10-05T21:56:58.859Z,56.29
2022-10-05T21:59:28.077Z,54.36
2022-10-05T22:01:55.580Z,55.23
2022-10-05T22:04:23.134Z,58.39
2022-10-05T22:06:51.219Z,59.49
2022-10-05T22:09:18.795Z,60.89
2022-10-05T22:11:47.922Z,65.21
2022-10-05T22:14:15.782Z,61.06
2022-10-05T22:16:43.726Z,54.65
2022-10-05T22:19:14.453Z,54.28
2022-10-05T22:21:42.036Z,55.99
2022-10-05T22:24:11.432Z,57.42
2022-10-05T22:26:39.571Z,58.72
2022-10-05T22:29:07.305Z,59.24
2022-10-05T22:31:35.131Z,61.95
2022-10-05T22:34:02.835Z,67.55
2022-10-05T22:36:30.395Z,66.08
2022-10-05T22:38:58.322Z,62.93
2022-10-05T22:41:25.897Z,55.27
2022-10-05T22:43:53.495Z,52.90
2022-10-05T22:46:21.161Z,54.06
2022-10-05T22:48:48.883Z,55.09
2022-10-05T22:51:16.670Z,56.78
2022-10-05T22:53:44.261Z,57.81
2022-10-05T22:56:13.097Z,59.12
2022-10-05T22:58:41.247Z,60.69
2022-10-05T23:01:10.811Z,66.47
2022-10-05T23:03:38.513Z,63.29
2022-10-05T23:06:11.041Z,56.90
2022-10-05T23:08:38.992Z,53.30
2022-10-05T23:11:14.282Z,54.58
2022-10-05T23:13:41.806Z,56.53
2022-10-05T23:16:17.434Z,58.04
2022-10-05T23:18:45.343Z,59.40
2022-10-05T23:21:12.862Z,60.32
2022-10-05T23:23:41.734Z,61.40
2022-10-05T23:26:10.639Z,65.72
2022-10-05T23:28:43.126Z,64.33
2022-10-05T23:31:10.802Z,56.47
2022-10-05T23:33:38.541Z,54.97
2022-10-05T23:36:26.034Z,56.48
2022-10-05T23:38:54.088Z,58.38
2022-10-05T23:41:21.801Z,60.56
2022-10-05T23:43:49.498Z,63.24
2022-10-05T23:46:17.793Z,65.19
2022-10-05T23:48:45.430Z,56.79
2022-10-05T23:51:13.193Z,55.70
2022-10-05T23:53:40.714Z,58.12
2022-10-05T23:56:08.280Z,60.61
2022-10-05T23:58:35.966Z,60.87
